createdAt,value
2023-09-15T00:00:35.177Z,0.00
2023-09-15T00:01:35.166Z,0.00
2023-09-15T00:02:35.193Z,0.00
2023-09-15T00:03:35.183Z,0.00
2023-09-15T00:04:35.969Z,0.00
2023-09-15T00:05:35.188Z,0.00
2023-09-15T00:06:35.108Z,0.00
2023-09-15T00:07:35.085Z,0.00
2023-09-15T00:08:35.093Z,0.00
2023-09-15T00:09:35.088Z,0.00
2023-09-15T00:10:35.055Z,0.00
2023-09-15T00:11:35.063Z,0.00
2023-09-15T00:12:35.072Z,0.00
2023-09-15T00:13:35.130Z,0.00
2023-09-15T00:14:35.017Z,0.00
2023-09-15T00:15:35.053Z,0.00
2023-09-15T00:16:35.096Z,0.00
2023-09-15T00:17:35.001Z,0.00
2023-09-15T00:18:35.023Z,0.00
2023-09-15T00:19:34.964Z,0.00
2023-09-15T00:20:34.948Z,0.00
2023-09-15T00:21:34.975Z,0.00
2023-09-15T00:22:34.935Z,0.00
2023-09-15T00:23:34.914Z,0.00
2023-09-15T00:24:34.964Z,0.00
2023-09-15T00:25:34.918Z,0.00
2023-09-15T00:26:34.895Z,0.00
2023-09-15T00:27:34.898Z,0.00
2023-09-15T00:28:34.872Z,0.00
2023-09-15T00:29:34.885Z,0.00
2023-09-15T00:30:34.882Z,0.00
2023-09-15T00:31:34.852Z,0.00
2023-09-15T00:32:34.869Z,0.00
2023-09-15T00:33:34.878Z,0.00
2023-09-15T00:34:34.814Z,0.00
2023-09-15T00:35:34.818Z,0.00
2023-09-15T00:36:34.797Z,0.00
2023-09-15T00:37:34.771Z,0.00
2023-09-15T00:38:34.766Z,0.00
2023-09-15T00:39:34.757Z,0.00
2023-09-15T00:40:34.745Z,0.00
2023-09-15T00:41:34.744Z,0.00
2023-09-15T00:42:34.730Z,0.00
2023-09-15T00:43:34.702Z,0.00
2023-09-15T00:44:34.717Z,0.00
2023-09-15T00:45:34.712Z,0.00
2023-09-15T00:46:34.839Z,0.00
2023-09-15T00:47:34.661Z,0.00
2023-09-15T00:48:34.659Z,0.00
2023-09-15T00:49:34.637Z,0.00
2023-09-15T00:50:34.648Z,0.00
2023-09-15T00:51:34.647Z,0.00
2023-09-15T00:52:34.638Z,0.00
2023-09-15T00:53:34.609Z,0.00
2023-09-15T00:54:34.601Z,0.00
2023-09-15T00:55:34.587Z,0.00
2023-09-15T00:56:34.566Z,0.00
2023-09-15T00:57:34.562Z,0.00
2023-09-15T00:58:34.591Z,0.00
2023-09-15T00:59:34.543Z,0.00
2023-09-15T01:00:34.537Z,0.00
2023-09-15T01:01:34.575Z,0.00
2023-09-15T01:02:34.542Z,0.00
2023-09-15T01:03:34.559Z,0.00
2023-09-15T01:04:34.472Z,0.00
2023-09-15T01:05:34.487Z,0.00
2023-09-15T01:06:34.457Z,0.00
2023-09-15T01:07:34.448Z,0.00
2023-09-15T01:08:34.446Z,0.00
2023-09-15T01:09:34.431Z,0.00
2023-09-15T01:10:34.423Z,0.00
2023-09-15T01:11:34.414Z,0.00
2023-09-15T01:12:34.385Z,0.00
2023-09-15T01:13:34.402Z,0.00
2023-09-15T01:14:34.377Z,0.00
2023-09-15T01:15:34.541Z,0.00
2023-09-15T01:16:34.423Z,0.00
2023-09-15T01:17:34.383Z,0.00
2023-09-15T01:18:34.359Z,0.00
2023-09-15T01:19:34.349Z,0.00
2023-09-15T01:20:34.326Z,0.00
2023-09-15T01:21:34.303Z,0.00
2023-09-15T01:22:34.296Z,0.00
2023-09-15T01:23:34.294Z,0.00
2023-09-15T01:24:34.289Z,0.00
2023-09-15T01:25:34.261Z,0.00
2023-09-15T01:26:34.256Z,0.00
2023-09-15T01:27:34.259Z,0.00
2023-09-15T01:28:34.215Z,0.00
2023-09-15T01:29:34.214Z,0.00
2023-09-15T01:30:34.225Z,0.00
2023-09-15T01:31:34.272Z,0.00
2023-09-15T01:32:34.183Z,0.00
2023-09-15T01:33:34.169Z,0.00
2023-09-15T01:34:34.180Z,0.00
2023-09-15T01:35:34.177Z,0.00
2023-09-15T01:36:34.129Z,0.00
2023-09-15T01:37:34.123Z,0.00
2023-09-15T01:38:34.130Z,0.00
2023-09-15T01:39:34.107Z,0.00
2023-09-15T01:40:34.100Z,0.00
2023-09-15T01:41:34.084Z,0.00
2023-09-15T01:42:34.065Z,0.00
2023-09-15T01:43:34.077Z,0.00
2023-09-15T01:44:34.049Z,0.00
2023-09-15T01:45:34.074Z,0.00
2023-09-15T01:46:34.126Z,0.00
2023-09-15T01:47:34.053Z,0.00
2023-09-15T01:48:34.009Z,0.00
2023-09-15T01:49:33.993Z,0.00
2023-09-15T01:50:33.984Z,0.00
2023-09-15T01:51:33.997Z,0.00
2023-09-15T01:52:33.969Z,0.00
2023-09-15T01:53:33.957Z,0.00
2023-09-15T01:54:33.946Z,0.00
2023-09-15T01:55:33.945Z,0.00
2023-09-15T01:56:33.945Z,0.00
2023-09-15T01:57:33.913Z,0.00
2023-09-15T01:58:33.905Z,0.00
2023-09-15T01:59:33.906Z,0.00
2023-09-15T02:00:33.879Z,0.00
2023-09-15T02:01:33.925Z,0.00
2023-09-15T02:02:33.893Z,0.00
2023-09-15T02:03:33.952Z,0.00
2023-09-15T02:04:33.841Z,0.00
2023-09-15T02:05:33.816Z,0.00
2023-09-15T02:06:33.835Z,0.00
2023-09-15T02:07:33.808Z,0.00
2023-09-15T02:08:33.795Z,0.00
2023-09-15T02:09:33.825Z,0.00
2023-09-15T02:10:33.769Z,0.00
2023-09-15T02:11:33.797Z,0.00
2023-09-15T02:12:33.756Z,0.00
2023-09-15T02:13:33.745Z,0.00
2023-09-15T02:14:33.743Z,0.00
2023-09-15T02:15:33.746Z,0.00
2023-09-15T02:16:33.768Z,0.00
2023-09-15T02:17:33.718Z,0.00
2023-09-15T02:18:33.706Z,0.00
2023-09-15T02:19:33.693Z,0.00
2023-09-15T02:20:33.690Z,0.00
2023-09-15T02:21:33.693Z,0.00
2023-09-15T02:22:33.654Z,0.00
2023-09-15T02:23:33.636Z,0.00
2023-09-15T02:24:33.637Z,0.00
2023-09-15T02:25:33.623Z,0.00
2023-09-15T02:26:33.629Z,0.00
2023-09-15T02:27:33.613Z,0.00
2023-09-15T02:28:33.592Z,0.00
2023-09-15T02:29:33.571Z,0.00
2023-09-15T02:30:33.614Z,0.00
2023-09-15T02:31:33.619Z,0.00
2023-09-15T02:32:33.549Z,0.00
2023-09-15T02:33:33.546Z,0.00
2023-09-15T02:34:33.519Z,0.00
2023-09-15T02:35:33.513Z,0.00
2023-09-15T02:36:33.508Z,0.00
2023-09-15T02:37:33.500Z,0.00
2023-09-15T02:38:33.480Z,0.00
2023-09-15T02:39:33.473Z,0.00
2023-09-15T02:40:33.458Z,0.00
2023-09-15T02:41:35.022Z,0.00
2023-09-15T02:42:33.435Z,0.00
2023-09-15T02:43:33.434Z,0.00
2023-09-15T02:44:33.401Z,0.00
2023-09-15T02:45:33.416Z,0.00
2023-09-15T02:46:33.537Z,0.00
2023-09-15T02:47:33.399Z,0.00
2023-09-15T02:48:33.363Z,0.00
2023-09-15T02:49:33.418Z,0.00
2023-09-15T02:50:33.354Z,0.00
2023-09-15T02:51:33.342Z,0.00
2023-09-15T02:52:33.344Z,0.00
2023-09-15T02:53:33.305Z,0.00
2023-09-15T02:54:33.311Z,0.00
2023-09-15T02:55:33.294Z,0.00
2023-09-15T02:56:33.280Z,0.00
2023-09-15T02:57:33.294Z,0.00
2023-09-15T02:58:33.282Z,0.00
2023-09-15T02:59:33.264Z,0.00
2023-09-15T03:00:33.275Z,0.00
2023-09-15T03:01:33.313Z,0.00
2023-09-15T03:02:33.370Z,0.00
2023-09-15T03:03:33.316Z,0.00
2023-09-15T03:04:33.221Z,0.00
2023-09-15T03:05:33.270Z,0.00
2023-09-15T03:06:33.176Z,0.00
2023-09-15T03:07:33.179Z,0.00
2023-09-15T03:08:33.245Z,0.00
2023-09-15T03:09:33.156Z,0.00
2023-09-15T03:10:33.136Z,0.00
2023-09-15T03:11:33.252Z,0.00
2023-09-15T03:12:33.115Z,0.00
2023-09-15T03:13:33.101Z,0.00
2023-09-15T03:14:33.171Z,0.00
2023-09-15T03:15:33.097Z,0.00
2023-09-15T03:16:33.281Z,0.00
2023-09-15T03:17:33.220Z,0.00
2023-09-15T03:18:33.039Z,0.00
2023-09-15T03:19:33.084Z,0.00
2023-09-15T03:20:33.036Z,0.00
2023-09-15T03:21:33.104Z,0.00
2023-09-15T03:22:33.048Z,0.00
2023-09-15T03:23:33.183Z,0.00
2023-09-15T03:24:33.097Z,0.00
2023-09-15T03:25:33.098Z,0.00
2023-09-15T03:26:32.965Z,0.00
2023-09-15T03:27:32.953Z,0.00
2023-09-15T03:28:32.933Z,0.00
2023-09-15T03:29:32.951Z,0.00
2023-09-15T03:30:32.949Z,0.00
2023-09-15T03:31:32.978Z,0.00
2023-09-15T03:32:32.926Z,0.00
2023-09-15T03:33:32.901Z,0.00
2023-09-15T03:34:32.912Z,0.00
2023-09-15T03:35:32.883Z,0.00
2023-09-15T03:36:32.851Z,0.00
2023-09-15T03:37:32.860Z,0.00
2023-09-15T03:38:32.837Z,0.00
2023-09-15T03:39:33.001Z,0.00
2023-09-15T03:40:32.828Z,0.00
2023-09-15T03:41:32.809Z,0.00
2023-09-15T03:42:32.853Z,0.00
2023-09-15T03:43:32.791Z,0.00
2023-09-15T03:44:32.770Z,0.00
2023-09-15T03:45:32.851Z,0.00
2023-09-15T03:46:32.875Z,0.00
2023-09-15T03:47:32.762Z,0.00
2023-09-15T03:48:32.791Z,0.00
2023-09-15T03:49:32.727Z,0.00
2023-09-15T03:50:32.706Z,0.00
2023-09-15T03:51:32.739Z,0.00
2023-09-15T03:52:32.686Z,0.00
2023-09-15T03:53:32.670Z,0.00
2023-09-15T03:54:32.659Z,0.00
2023-09-15T03:55:32.654Z,0.00
2023-09-15T03:56:32.666Z,0.00
2023-09-15T03:57:32.636Z,0.00
2023-09-15T03:58:32.622Z,0.00
2023-09-15T03:59:32.616Z,0.00
2023-09-15T04:00:32.598Z,0.00
2023-09-15T04:01:32.692Z,0.00
2023-09-15T04:02:32.612Z,0.00
2023-09-15T04:03:32.622Z,0.00
2023-09-15T04:04:32.687Z,0.00
2023-09-15T04:05:32.556Z,0.00
2023-09-15T04:06:32.562Z,0.00
2023-09-15T04:07:32.607Z,0.00
2023-09-15T04:08:32.531Z,0.00
2023-09-15T04:09:32.540Z,0.00
2023-09-15T04:10:32.685Z,0.00
2023-09-15T04:11:32.506Z,0.00
2023-09-15T04:12:32.554Z,0.00
2023-09-15T04:13:32.448Z,0.00
2023-09-15T04:14:32.481Z,0.00
2023-09-15T04:15:32.498Z,0.00
2023-09-15T04:16:32.516Z,0.00
2023-09-15T04:17:32.475Z,0.00
2023-09-15T04:18:32.395Z,0.00
2023-09-15T04:19:32.495Z,0.00
2023-09-15T04:20:43.624Z,0.00
2023-09-15T04:21:32.411Z,0.00
2023-09-15T04:22:32.376Z,0.00
2023-09-15T04:23:32.367Z,0.00
2023-09-15T04:24:32.343Z,0.00
2023-09-15T04:25:32.350Z,0.00
2023-09-15T04:26:32.342Z,0.00
2023-09-15T04:27:32.318Z,0.00
2023-09-15T04:28:32.310Z,0.00
2023-09-15T04:29:32.286Z,0.00
2023-09-15T04:30:32.279Z,0.00
2023-09-15T04:31:32.442Z,0.00
2023-09-15T04:32:32.310Z,0.00
2023-09-15T04:33:32.272Z,0.00
2023-09-15T04:34:32.178Z,1.00
2023-09-15T04:35:32.194Z,1.00
2023-09-15T04:36:32.148Z,1.00
2023-09-15T04:37:32.185Z,1.00
2023-09-15T04:38:32.138Z,1.00
2023-09-15T04:39:32.129Z,2.00
2023-09-15T04:40:32.121Z,2.00
2023-09-15T04:41:32.112Z,1.00
2023-09-15T04:42:32.095Z,1.00
2023-09-15T04:43:32.094Z,2.00
2023-09-15T04:44:32.062Z,1.00
2023-09-15T04:45:32.066Z,1.00
2023-09-15T04:46:32.184Z,6.00
2023-09-15T04:47:32.075Z,1.00
2023-09-15T04:48:32.068Z,2.00
2023-09-15T04:49:32.168Z,1.00
2023-09-15T04:50:32.035Z,4.00
2023-09-15T04:51:32.015Z,9.00
2023-09-15T04:52:32.001Z,7.00
2023-09-15T04:53:31.973Z,7.00
2023-09-15T04:54:31.973Z,4.00
2023-09-15T04:55:31.974Z,4.00
2023-09-15T04:56:31.977Z,11.00
2023-09-15T04:57:31.938Z,13.00
2023-09-15T04:58:31.921Z,17.00
2023-09-15T04:59:31.922Z,19.00
2023-09-15T05:00:31.904Z,23.00
2023-09-15T05:01:31.955Z,23.00
2023-09-15T05:02:31.909Z,27.00
2023-09-15T05:03:31.925Z,31.00
2023-09-15T05:04:31.881Z,33.00
2023-09-15T05:05:31.873Z,39.00
2023-09-15T05:06:31.841Z,38.00
2023-09-15T05:07:31.868Z,40.00
2023-09-15T05:08:31.832Z,44.00
2023-09-15T05:09:31.804Z,51.00
2023-09-15T05:10:31.873Z,59.00
2023-09-15T05:11:31.776Z,62.00
2023-09-15T05:12:31.795Z,65.00
2023-09-15T05:13:31.815Z,75.00
2023-09-15T05:14:33.890Z,77.00
2023-09-15T05:15:31.748Z,86.00
2023-09-15T05:16:31.790Z,91.00
2023-09-15T05:17:31.744Z,92.00
2023-09-15T05:18:31.731Z,100.00
2023-09-15T05:19:31.699Z,105.00
2023-09-15T05:20:31.742Z,108.00
2023-09-15T05:21:31.676Z,118.00
2023-09-15T05:22:31.683Z,126.00
2023-09-15T05:23:31.767Z,134.00
2023-09-15T05:24:31.657Z,139.00
2023-09-15T05:25:31.688Z,145.00
2023-09-15T05:26:31.636Z,146.00
2023-09-15T05:27:31.612Z,157.00
2023-09-15T05:28:31.713Z,161.00
2023-09-15T05:29:31.618Z,165.00
2023-09-15T05:30:31.608Z,179.00
2023-09-15T05:31:31.697Z,181.00
2023-09-15T05:32:31.575Z,190.00
2023-09-15T05:33:31.595Z,196.00
2023-09-15T05:34:31.639Z,204.00
2023-09-15T05:35:31.537Z,209.00
2023-09-15T05:36:31.547Z,216.00
2023-09-15T05:37:31.623Z,224.00
2023-09-15T05:38:31.548Z,228.00
2023-09-15T05:39:31.487Z,232.00
2023-09-15T05:40:31.528Z,236.00
2023-09-15T05:41:31.635Z,241.00
2023-09-15T05:42:31.500Z,253.00
2023-09-15T05:43:31.507Z,253.00
2023-09-15T05:44:31.452Z,261.00
2023-09-15T05:45:31.450Z,267.00
2023-09-15T05:46:31.624Z,271.00
2023-09-15T05:47:31.458Z,276.00
2023-09-15T05:48:31.451Z,281.00
2023-09-15T05:49:31.457Z,289.00
2023-09-15T05:50:31.382Z,294.00
2023-09-15T05:51:31.367Z,296.00
2023-09-15T05:52:31.585Z,304.00
2023-09-15T05:53:31.359Z,306.00
2023-09-15T05:54:31.362Z,315.00
2023-09-15T05:55:31.557Z,319.00
2023-09-15T05:56:31.329Z,329.00
2023-09-15T05:57:31.297Z,335.00
2023-09-15T05:58:31.490Z,341.00
2023-09-15T05:59:31.286Z,347.00
2023-09-15T06:00:31.395Z,351.00
2023-09-15T06:01:31.498Z,358.00
2023-09-15T06:02:31.287Z,363.00
2023-09-15T06:03:31.271Z,371.00
2023-09-15T06:04:31.457Z,374.00
2023-09-15T06:05:31.205Z,379.00
2023-09-15T06:06:31.213Z,390.00
2023-09-15T06:07:31.232Z,393.00
2023-09-15T06:08:31.200Z,397.00
2023-09-15T06:09:31.189Z,399.00
2023-09-15T06:10:31.223Z,403.00
2023-09-15T06:11:31.157Z,408.00
2023-09-15T06:12:31.156Z,412.00
2023-09-15T06:13:31.211Z,416.00
2023-09-15T06:14:31.124Z,418.00
2023-09-15T06:15:31.133Z,428.00
2023-09-15T06:16:31.183Z,431.00
2023-09-15T06:17:31.138Z,428.00
2023-09-15T06:18:31.097Z,431.00
2023-09-15T06:19:31.087Z,433.00
2023-09-15T06:20:31.091Z,437.00
2023-09-15T06:21:31.113Z,445.00
2023-09-15T06:22:31.076Z,448.00
2023-09-15T06:23:31.051Z,447.00
2023-09-15T06:24:31.057Z,449.00
2023-09-15T06:25:31.036Z,454.00
2023-09-15T06:26:30.990Z,459.00
2023-09-15T06:27:31.028Z,457.00
2023-09-15T06:28:31.059Z,460.00
2023-09-15T06:29:31.064Z,464.00
2023-09-15T06:30:31.143Z,463.00
2023-09-15T06:31:31.022Z,468.00
2023-09-15T06:32:31.001Z,473.00
2023-09-15T06:33:30.938Z,471.00
2023-09-15T06:34:30.948Z,476.00
2023-09-15T06:35:30.906Z,479.00
2023-09-15T06:36:30.976Z,489.00
2023-09-15T06:37:30.935Z,488.00
2023-09-15T06:38:30.859Z,491.00
2023-09-15T06:39:30.913Z,501.00
2023-09-15T06:40:30.903Z,490.00
2023-09-15T06:41:30.847Z,496.00
2023-09-15T06:42:30.875Z,491.00
2023-09-15T06:43:30.890Z,494.00
2023-09-15T06:44:30.811Z,496.00
2023-09-15T06:45:30.985Z,496.00
2023-09-15T06:46:30.901Z,497.00
2023-09-15T06:47:30.837Z,500.00
2023-09-15T06:48:30.823Z,503.00
2023-09-15T06:49:30.802Z,510.00
2023-09-15T06:50:30.774Z,503.00
2023-09-15T06:51:30.787Z,501.00
2023-09-15T06:52:30.807Z,505.00
2023-09-15T06:53:30.717Z,503.00
2023-09-15T06:54:30.810Z,511.00
2023-09-15T06:55:30.738Z,505.00
2023-09-15T06:56:30.673Z,512.00
2023-09-15T06:57:30.752Z,510.00
2023-09-15T06:58:30.722Z,514.00
2023-09-15T06:59:30.646Z,512.00
2023-09-15T07:00:30.718Z,516.00
2023-09-15T07:01:30.668Z,519.00
2023-09-15T07:02:30.665Z,519.00
2023-09-15T07:03:30.658Z,520.00
2023-09-15T07:04:30.678Z,519.00
2023-09-15T07:05:30.587Z,522.00
2023-09-15T07:06:30.632Z,526.00
2023-09-15T07:07:30.593Z,532.00
2023-09-15T07:08:30.560Z,530.00
2023-09-15T07:09:30.581Z,533.00
2023-09-15T07:10:30.580Z,532.00
2023-09-15T07:11:30.536Z,536.00
2023-09-15T07:12:30.572Z,537.00
2023-09-15T07:13:30.528Z,534.00
2023-09-15T07:14:30.481Z,537.00
2023-09-15T07:15:30.527Z,540.00
2023-09-15T07:16:30.557Z,541.00
2023-09-15T07:17:30.562Z,540.00
2023-09-15T07:18:30.537Z,540.00
2023-09-15T07:19:30.486Z,542.00
2023-09-15T07:20:30.422Z,541.00
2023-09-15T07:21:30.451Z,544.00
2023-09-15T07:22:30.404Z,549.00
2023-09-15T07:23:30.421Z,544.00
2023-09-15T07:24:30.434Z,548.00
2023-09-15T07:25:30.444Z,549.00
2023-09-15T07:26:30.356Z,547.00
2023-09-15T07:27:30.428Z,549.00
2023-09-15T07:28:30.411Z,555.00
2023-09-15T07:29:30.344Z,556.00
2023-09-15T07:30:30.400Z,556.00
2023-09-15T07:31:30.396Z,556.00
2023-09-15T07:32:30.385Z,562.00
2023-09-15T07:33:30.337Z,560.00
2023-09-15T07:34:30.324Z,559.00
2023-09-15T07:35:30.260Z,565.00
2023-09-15T07:36:30.255Z,568.00
2023-09-15T07:37:30.305Z,570.00
2023-09-15T07:38:31.439Z,568.00
2023-09-15T07:39:30.264Z,573.00
2023-09-15T07:40:30.242Z,574.00
2023-09-15T07:41:30.200Z,577.00
2023-09-15T07:42:30.198Z,577.00
2023-09-15T07:43:30.230Z,579.00
2023-09-15T07:44:30.222Z,582.00
2023-09-15T07:45:30.205Z,588.00
2023-09-15T07:46:30.275Z,590.00
2023-09-15T07:47:30.170Z,592.00
2023-09-15T07:48:30.118Z,591.00
2023-09-15T07:49:30.180Z,598.00
2023-09-15T07:50:30.127Z,594.00
2023-09-15T07:51:30.124Z,607.00
2023-09-15T07:52:30.171Z,608.00
2023-09-15T07:53:30.097Z,614.00
2023-09-15T07:54:30.082Z,624.00
2023-09-15T07:55:30.101Z,628.00
2023-09-15T07:56:30.044Z,626.00
2023-09-15T07:57:30.060Z,627.00
2023-09-15T07:58:30.148Z,634.00
2023-09-15T07:59:30.021Z,635.00
2023-09-15T08:00:30.017Z,642.00
2023-09-15T08:01:30.649Z,645.00
2023-09-15T08:02:30.090Z,648.00
2023-09-15T08:03:29.997Z,649.00
2023-09-15T08:04:30.136Z,650.00
2023-09-15T08:05:29.948Z,649.00
2023-09-15T08:06:29.954Z,655.00
2023-09-15T08:07:30.007Z,658.00
2023-09-15T08:08:29.936Z,657.00
2023-09-15T08:09:29.931Z,656.00
2023-09-15T08:10:29.959Z,657.00
2023-09-15T08:11:29.880Z,661.00
2023-09-15T08:12:29.866Z,658.00
2023-09-15T08:13:29.932Z,660.00
2023-09-15T08:14:29.842Z,659.00
2023-09-15T08:15:29.856Z,662.00
2023-09-15T08:16:29.918Z,661.00
2023-09-15T08:17:34.180Z,662.00
2023-09-15T08:18:29.875Z,660.00
2023-09-15T08:19:29.903Z,661.00
2023-09-15T08:20:29.803Z,659.00
2023-09-15T08:21:29.774Z,665.00
2023-09-15T08:22:29.849Z,660.00
2023-09-15T08:23:29.742Z,667.00
2023-09-15T08:24:29.752Z,662.00
2023-09-15T08:25:29.843Z,665.00
2023-09-15T08:26:38.955Z,661.00
2023-09-15T08:27:29.818Z,664.00
2023-09-15T08:28:29.787Z,659.00
2023-09-15T08:29:29.683Z,664.00
2023-09-15T08:30:29.703Z,665.00
2023-09-15T08:31:29.809Z,668.00
2023-09-15T08:32:29.673Z,665.00
2023-09-15T08:33:29.628Z,664.00
2023-09-15T08:34:29.711Z,662.00
2023-09-15T08:35:29.628Z,664.00
2023-09-15T08:36:29.613Z,658.00
2023-09-15T08:37:29.694Z,664.00
2023-09-15T08:38:29.584Z,659.00
2023-09-15T08:39:29.572Z,655.00
2023-09-15T08:40:29.653Z,658.00
2023-09-15T08:41:29.558Z,654.00
2023-09-15T08:42:29.541Z,656.00
2023-09-15T08:43:31.052Z,647.00
2023-09-15T08:44:29.522Z,655.00
2023-09-15T08:45:29.534Z,655.00
2023-09-15T08:46:29.591Z,657.00
2023-09-15T08:47:29.550Z,651.00
2023-09-15T08:48:29.462Z,655.00
2023-09-15T08:49:29.538Z,654.00
2023-09-15T08:50:29.460Z,656.00
2023-09-15T08:51:29.442Z,657.00
2023-09-15T08:52:29.505Z,661.00
2023-09-15T08:53:29.410Z,662.00
2023-09-15T08:54:29.419Z,655.00
2023-09-15T08:55:29.466Z,652.00
2023-09-15T08:56:29.380Z,656.00
2023-09-15T08:57:29.475Z,718.00
2023-09-15T08:58:29.456Z,627.00
2023-09-15T08:59:29.341Z,733.00
2023-09-15T09:00:29.361Z,763.00
2023-09-15T09:01:29.480Z,501.00
2023-09-15T09:02:29.459Z,622.00
2023-09-15T09:03:29.418Z,641.00
2023-09-15T09:04:29.373Z,666.00
2023-09-15T09:05:29.288Z,665.00
2023-09-15T09:06:29.311Z,661.00
2023-09-15T09:07:29.361Z,661.00
2023-09-15T09:08:29.271Z,673.00
2023-09-15T09:09:29.238Z,674.00
2023-09-15T09:10:29.330Z,670.00
2023-09-15T09:11:29.230Z,678.00
2023-09-15T09:12:29.217Z,674.00
2023-09-15T09:13:41.577Z,675.00
2023-09-15T09:14:29.196Z,686.00
2023-09-15T09:15:29.168Z,658.00
2023-09-15T09:16:29.319Z,680.00
2023-09-15T09:17:29.323Z,686.00
2023-09-15T09:18:29.153Z,681.00
2023-09-15T09:19:29.217Z,694.00
2023-09-15T09:20:29.119Z,673.00
2023-09-15T09:21:29.145Z,683.00
2023-09-15T09:22:29.368Z,683.00
2023-09-15T09:23:29.097Z,685.00
2023-09-15T09:24:29.089Z,691.00
2023-09-15T09:25:29.161Z,700.00
2023-09-15T09:26:29.069Z,695.00
2023-09-15T09:27:29.087Z,708.00
2023-09-15T09:28:29.133Z,718.00
2023-09-15T09:29:29.053Z,719.00
2023-09-15T09:30:29.031Z,716.00
2023-09-15T09:31:29.178Z,723.00
2023-09-15T09:32:29.053Z,724.00
2023-09-15T09:33:29.012Z,725.00
2023-09-15T09:34:46.471Z,726.00
2023-09-15T09:35:29.021Z,735.00
2023-09-15T09:36:28.958Z,737.00
2023-09-15T09:37:29.017Z,736.00
2023-09-15T09:38:28.941Z,735.00
2023-09-15T09:39:28.995Z,750.00
2023-09-15T09:40:28.963Z,739.00
2023-09-15T09:41:30.260Z,754.00
2023-09-15T09:42:28.946Z,743.00
2023-09-15T09:43:28.933Z,754.00
2023-09-15T09:44:28.890Z,765.00
2023-09-15T09:45:28.921Z,760.00
2023-09-15T09:46:28.941Z,756.00
2023-09-15T09:47:28.908Z,730.00
2023-09-15T09:48:29.083Z,1169.00
2023-09-15T09:49:28.862Z,461.00
2023-09-15T09:50:28.926Z,753.00
2023-09-15T09:51:28.840Z,738.00
2023-09-15T09:52:28.836Z,760.00
2023-09-15T09:53:28.795Z,761.00
2023-09-15T09:54:28.903Z,753.00
2023-09-15T09:55:28.854Z,773.00
2023-09-15T09:56:28.752Z,765.00
2023-09-15T09:57:28.771Z,768.00
2023-09-15T09:58:28.775Z,768.00
2023-09-15T09:59:28.726Z,757.00
2023-09-15T10:00:28.762Z,756.00
2023-09-15T10:01:28.832Z,752.00
2023-09-15T10:02:28.739Z,740.00
2023-09-15T10:03:28.757Z,759.00
2023-09-15T10:04:28.698Z,753.00
2023-09-15T10:05:28.671Z,758.00
2023-09-15T10:06:28.697Z,758.00
2023-09-15T10:07:28.684Z,759.00
2023-09-15T10:08:28.621Z,765.00
2023-09-15T10:09:28.642Z,752.00
2023-09-15T10:10:28.632Z,762.00
2023-09-15T10:11:28.610Z,760.00
2023-09-15T10:12:28.619Z,768.00
2023-09-15T10:13:28.605Z,775.00
2023-09-15T10:14:28.554Z,773.00
2023-09-15T10:15:28.668Z,779.00
2023-09-15T10:16:28.636Z,788.00
2023-09-15T10:17:28.562Z,808.00
2023-09-15T10:18:28.539Z,805.00
2023-09-15T10:19:28.574Z,815.00
2023-09-15T10:20:28.484Z,810.00
2023-09-15T10:21:28.509Z,825.00
2023-09-15T10:22:28.526Z,834.00
2023-09-15T10:23:28.462Z,789.00
2023-09-15T10:24:28.502Z,810.00
2023-09-15T10:25:28.465Z,816.00
2023-09-15T10:26:28.429Z,803.00
2023-09-15T10:27:28.418Z,813.00
2023-09-15T10:28:42.096Z,808.00
2023-09-15T10:29:28.403Z,804.00
2023-09-15T10:30:28.449Z,800.00
2023-09-15T10:31:28.508Z,789.00
2023-09-15T10:32:28.376Z,808.00
2023-09-15T10:33:28.389Z,793.00
2023-09-15T10:34:28.387Z,798.00
2023-09-15T10:35:28.331Z,793.00
2023-09-15T10:36:28.359Z,799.00
2023-09-15T10:37:28.381Z,806.00
2023-09-15T10:38:28.293Z,799.00
2023-09-15T10:39:28.328Z,802.00
2023-09-15T10:40:28.318Z,790.00
2023-09-15T10:41:28.278Z,790.00
2023-09-15T10:42:28.296Z,787.00
2023-09-15T10:43:28.356Z,785.00
2023-09-15T10:44:28.250Z,789.00
2023-09-15T10:45:28.235Z,795.00
2023-09-15T10:46:28.303Z,785.00
2023-09-15T10:47:28.298Z,803.00
2023-09-15T10:48:28.235Z,798.00
2023-09-15T10:49:28.223Z,796.00
2023-09-15T10:50:28.170Z,807.00
2023-09-15T10:51:28.214Z,790.00
2023-09-15T10:52:28.202Z,794.00
2023-09-15T10:53:28.144Z,797.00
2023-09-15T10:54:28.152Z,801.00
2023-09-15T10:55:28.171Z,799.00
2023-09-15T10:56:28.108Z,791.00
2023-09-15T10:57:28.150Z,806.00
2023-09-15T10:58:28.127Z,795.00
2023-09-15T10:59:28.108Z,801.00
2023-09-15T11:00:28.149Z,783.00
2023-09-15T11:01:28.110Z,794.00
2023-09-15T11:02:28.119Z,812.00
2023-09-15T11:03:28.084Z,785.00
2023-09-15T11:04:28.046Z,796.00
2023-09-15T11:05:28.027Z,799.00
2023-09-15T11:06:28.080Z,789.00
2023-09-15T11:07:27.999Z,789.00
2023-09-15T11:08:28.075Z,790.00
2023-09-15T11:09:28.027Z,780.00
2023-09-15T11:10:27.954Z,793.00
2023-09-15T11:11:27.956Z,777.00
2023-09-15T11:12:27.963Z,786.00
2023-09-15T11:13:27.933Z,795.00
2023-09-15T11:14:27.947Z,780.00
2023-09-15T11:15:27.956Z,779.00
2023-09-15T11:16:31.175Z,789.00
2023-09-15T11:17:28.002Z,781.00
2023-09-15T11:18:27.883Z,775.00
2023-09-15T11:19:27.878Z,787.00
2023-09-15T11:20:27.876Z,772.00
2023-09-15T11:21:27.868Z,801.00
2023-09-15T11:22:27.841Z,784.00
2023-09-15T11:23:27.872Z,803.00
2023-09-15T11:24:27.923Z,792.00
2023-09-15T11:25:27.806Z,795.00
2023-09-15T11:26:28.772Z,792.00
2023-09-15T11:27:28.665Z,795.00
2023-09-15T11:28:27.771Z,794.00
2023-09-15T11:29:27.796Z,786.00
2023-09-15T11:30:27.820Z,785.00
2023-09-15T11:31:27.768Z,792.00
2023-09-15T11:32:27.754Z,791.00
2023-09-15T11:33:27.795Z,797.00
2023-09-15T11:34:27.943Z,787.00
2023-09-15T11:35:27.702Z,802.00
2023-09-15T11:36:27.732Z,786.00
2023-09-15T11:37:27.684Z,797.00
2023-09-15T11:38:27.683Z,792.00
2023-09-15T11:39:27.696Z,789.00
2023-09-15T11:40:27.662Z,792.00
2023-09-15T11:41:27.631Z,797.00
2023-09-15T11:42:27.651Z,792.00
2023-09-15T11:43:27.638Z,787.00
2023-09-15T11:44:27.648Z,801.00
2023-09-15T11:45:27.709Z,794.00
2023-09-15T11:46:27.637Z,786.00
2023-09-15T11:47:27.676Z,784.00
2023-09-15T11:48:27.600Z,789.00
2023-09-15T11:49:27.553Z,793.00
2023-09-15T11:50:27.539Z,784.00
2023-09-15T11:51:27.567Z,786.00
2023-09-15T11:52:27.519Z,794.00
2023-09-15T11:53:27.503Z,778.00
2023-09-15T11:54:27.595Z,785.00
2023-09-15T11:55:27.494Z,794.00
2023-09-15T11:56:27.460Z,784.00
2023-09-15T11:57:27.512Z,783.00
2023-09-15T11:58:27.458Z,788.00
2023-09-15T11:59:27.445Z,781.00
2023-09-15T12:00:27.508Z,795.00
2023-09-15T12:01:27.472Z,782.00
2023-09-15T12:02:27.434Z,784.00
2023-09-15T12:03:27.502Z,782.00
2023-09-15T12:04:27.487Z,784.00
2023-09-15T12:05:28.243Z,786.00
2023-09-15T12:06:27.430Z,779.00
2023-09-15T12:07:27.384Z,768.00
2023-09-15T12:08:27.344Z,771.00
2023-09-15T12:09:27.364Z,787.00
2023-09-15T12:10:27.357Z,783.00
2023-09-15T12:11:27.322Z,781.00
2023-09-15T12:12:27.336Z,766.00
2023-09-15T12:13:27.281Z,778.00
2023-09-15T12:14:29.374Z,765.00
2023-09-15T12:15:27.354Z,772.00
2023-09-15T12:16:27.302Z,760.00
2023-09-15T12:17:27.300Z,766.00
2023-09-15T12:18:27.314Z,786.00
2023-09-15T12:19:29.635Z,764.00
2023-09-15T12:20:27.280Z,764.00
2023-09-15T12:21:27.284Z,761.00
2023-09-15T12:22:27.199Z,779.00
2023-09-15T12:23:27.374Z,758.00
2023-09-15T12:24:27.658Z,774.00
2023-09-15T12:25:27.160Z,762.00
2023-09-15T12:26:27.142Z,751.00
2023-09-15T12:27:27.202Z,753.00
2023-09-15T12:28:27.125Z,750.00
2023-09-15T12:29:27.111Z,755.00
2023-09-15T12:30:27.202Z,768.00
2023-09-15T12:31:27.114Z,752.00
2023-09-15T12:32:27.160Z,752.00
2023-09-15T12:33:27.193Z,747.00
2023-09-15T12:34:27.132Z,760.00
2023-09-15T12:35:27.067Z,762.00
2023-09-15T12:36:27.088Z,763.00
2023-09-15T12:37:27.070Z,744.00
2023-09-15T12:38:27.012Z,759.00
2023-09-15T12:39:27.203Z,746.00
2023-09-15T12:40:26.986Z,744.00
2023-09-15T12:41:26.989Z,761.00
2023-09-15T12:42:27.032Z,749.00
2023-09-15T12:43:26.991Z,741.00
2023-09-15T12:44:26.970Z,751.00
2023-09-15T12:45:26.996Z,743.00
2023-09-15T12:46:27.027Z,736.00
2023-09-15T12:47:27.033Z,737.00